Time;durP1;ratioP1;P1;durP2;ratioP2;P2;SDS_P1;SDS_P2;PMS_P1;PMS_P2;Temp;Humidity;BMP_temperature;BMP_pressure;BME280_temperature;BME280_humidity;BME280_pressure;Samples;Min_cycle;Max_cycle;Signal;HPM_P1;HPM_P2
2022/10/04 00:00:09;;;;;;;;;;;7.80;99.90;;;;;;5095815;28;19916;-65
2022/10/04 00:02:35;;;;;;;;;;;7.70;99.90;;;;;;5095592;28;19953;-65
2022/10/04 00:05:11;;;;;;;;;;;7.70;99.90;;;;;;5095751;28;19908;-65
2022/10/04 00:07:40;;;;;;;;;;;7.60;99.90;;;;;;5095436;28;19915;-65
2022/10/04 00:10:14;;;;;;;;;;;7.60;99.90;;;;;;5095365;28;20279;-65
2022/10/04 00:12:45;;;;;;;;;;;7.60;99.90;;;;;;5095277;28;19912;-65
2022/10/04 00:15:30;;;;;;;;;;;7.50;99.90;;;;;;5095395;28;19958;-65
2022/10/04 00:17:59;;;;;;;;;;;7.50;99.90;;;;;;5094721;28;19915;-65
2022/10/04 00:20:45;;;;;;;;;;;7.50;99.90;;;;;;5095526;28;19908;-65
2022/10/04 00:23:28;;;;;;;;;;;7.40;99.90;;;;;;5095074;28;19943;-65
2022/10/04 00:25:56;;;;;;;;;;;7.40;99.90;;;;;;5095327;28;19915;-65
2022/10/04 00:28:25;;;;;;;;;;;7.40;99.90;;;;;;5095019;28;19916;-65
2022/10/04 00:31:11;;;;;;;;;;;7.30;99.90;;;;;;5095001;28;19908;-65
2022/10/04 00:33:39;;;;;;;;;;;7.30;99.90;;;;;;5094818;28;19919;-65
2022/10/04 00:36:25;;;;;;;;;;;7.30;99.90;;;;;;5095167;28;20401;-65
2022/10/04 00:44:29;;;;;;;;;;;7.40;99.90;;;;;;5071096;28;20290;-65
2022/10/04 00:46:55;;;;;;;;;;;7.40;99.90;;;;;;5086579;28;19912;-65
2022/10/04 00:49:23;;;;;;;;;;;7.40;99.90;;;;;;5070865;28;19909;-66
2022/10/04 00:51:54;;;;;;;;;;;7.50;99.90;;;;;;5070846;28;20414;-65
2022/10/04 00:54:26;;;;;;;;;;;7.50;99.90;;;;;;5071097;28;20330;-65
2022/10/04 00:56:53;;;;;;;;;;;7.70;99.90;;;;;;5070740;28;19961;-65
2022/10/04 00:59:23;;;;;;;;;;;7.70;99.90;;;;;;5070958;28;20319;-65
2022/10/04 01:01:53;;;;;;;;;;;7.70;99.90;;;;;;5070888;28;19909;-65
2022/10/04 01:04:26;;;;;;;;;;;7.80;99.90;;;;;;5070808;28;19920;-65
2022/10/04 01:06:51;;;;;;;;;;;7.90;99.90;;;;;;5070602;28;19909;-65
2022/10/04 01:09:18;;;;;;;;;;;7.90;99.90;;;;;;5070408;28;19915;-65
2022/10/04 01:11:46;;;;;;;;;;;8.00;99.90;;;;;;5070449;28;19909;-65
2022/10/04 01:14:18;;;;;;;;;;;8.00;99.90;;;;;;5070399;28;19913;-65
2022/10/04 01:16:43;;;;;;;;;;;8.00;99.90;;;;;;5070301;28;19909;-65
2022/10/04 01:19:27;;;;;;;;;;;8.10;99.90;;;;;;5070276;28;19908;-65
2022/10/04 01:22:10;;;;;;;;;;;8.10;99.90;;;;;;5070190;28;20014;-65
2022/10/04 01:24:36;;;;;;;;;;;8.10;99.90;;;;;;5070481;28;20011;-65
2022/10/04 01:27:02;;;;;;;;;;;8.10;99.90;;;;;;5070199;28;19956;-65
2022/10/04 01:29:29;;;;;;;;;;;8.10;99.90;;;;;;5070070;28;19915;-65
2022/10/04 01:31:56;;;;;;;;;;;8.10;99.90;;;;;;5070053;28;20387;-65
2022/10/04 01:34:22;;;;;;;;;;;8.20;99.90;;;;;;5070255;28;19908;-65
2022/10/04 01:36:50;;;;;;;;;;;8.10;99.90;;;;;;5070208;28;20310;-65
2022/10/04 01:39:16;;;;;;;;;;;8.10;99.90;;;;;;5070206;28;19966;-65
2022/10/04 01:41:47;;;;;;;;;;;8.10;99.90;;;;;;5069785;28;19909;-65
2022/10/04 01:44:31;;;;;;;;;;;8.10;99.90;;;;;;5088535;28;19920;-65
2022/10/04 01:47:03;;;;;;;;;;;8.10;99.90;;;;;;5090287;28;19955;-65
2022/10/04 01:49:31;;;;;;;;;;;8.10;99.90;;;;;;5090241;28;19912;-65
2022/10/04 01:52:00;;;;;;;;;;;8.20;99.90;;;;;;5090221;28;19996;-65
2022/10/04 01:54:34;;;;;;;;;;;8.20;99.90;;;;;;5083845;28;19913;-65
2022/10/04 01:57:20;;;;;;;;;;;8.20;99.90;;;;;;5076610;28;19908;-65
2022/10/04 01:59:49;;;;;;;;;;;8.20;99.90;;;;;;5076218;28;19931;-65
2022/10/04 02:02:18;;;;;;;;;;;8.20;99.90;;;;;;5076417;28;19908;-65
2022/10/04 02:04:47;;;;;;;;;;;8.20;99.90;;;;;;5076276;28;19958;-65
2022/10/04 02:07:13;;;;;;;;;;;8.30;99.90;;;;;;5076397;28;20316;-66
2022/10/04 02:09:42;;;;;;;;;;;8.30;99.90;;;;;;5076092;28;20011;-65
2022/10/04 02:12:08;;;;;;;;;;;8.30;99.90;;;;;;5076064;28;20279;-65
2022/10/04 02:14:35;;;;;;;;;;;8.30;99.90;;;;;;5076316;28;20370;-65
2022/10/04 02:17:02;;;;;;;;;;;8.30;99.90;;;;;;5075979;28;19916;-65
2022/10/04 02:19:32;;;;;;;;;;;8.40;99.90;;;;;;5075867;28;19916;-65
2022/10/04 02:22:00;;;;;;;;;;;8.40;99.90;;;;;;5075882;28;19912;-65
2022/10/04 02:24:25;;;;;;;;;;;8.30;99.90;;;;;;5076100;28;19916;-65
2022/10/04 02:26:51;;;;;;;;;;;8.40;99.90;;;;;;5076005;28;20419;-65
2022/10/04 02:29:18;;;;;;;;;;;8.30;99.90;;;;;;5075739;28;19909;-65
2022/10/04 02:34:29;;;;;;;;;;;8.40;99.90;;;;;;5075423;28;20363;-65
2022/10/04 02:36:55;;;;;;;;;;;8.40;99.90;;;;;;5075513;28;19909;-65
2022/10/04 02:39:24;;;;;;;;;;;8.40;99.90;;;;;;5075500;28;19915;-65
2022/10/04 02:41:53;;;;;;;;;;;8.40;99.90;;;;;;5075716;28;20397;-65
2022/10/04 02:44:21;;;;;;;;;;;8.40;99.90;;;;;;5075226;28;19928;-65
2022/10/04 02:46:51;;;;;;;;;;;8.40;99.90;;;;;;5075637;28;19966;-65
2022/10/04 02:49:36;;;;;;;;;;;8.40;99.90;;;;;;5075616;28;19912;-65
2022/10/04 02:52:06;;;;;;;;;;;8.40;99.90;;;;;;5075290;28;19912;-65
2022/10/04 02:54:44;;;;;;;;;;;8.40;99.90;;;;;;5075281;28;20306;-65
2022/10/04 02:57:14;;;;;;;;;;;8.40;99.90;;;;;;5075513;28;19908;-65
2022/10/04 02:59:39;;;;;;;;;;;8.40;99.90;;;;;;5075429;28;19914;-65
2022/10/04 03:02:19;;;;;;;;;;;8.40;99.90;;;;;;5075039;28;19999;-66
2022/10/04 03:04:45;;;;;;;;;;;8.40;99.90;;;;;;5075174;28;19908;-65
2022/10/04 03:07:10;;;;;;;;;;;8.40;99.90;;;;;;5074010;28;19986;-65
2022/10/04 03:09:36;;;;;;;;;;;8.40;99.90;;;;;;5075233;28;19913;-65
2022/10/04 03:12:03;;;;;;;;;;;8.40;99.90;;;;;;5057043;28;19960;-65
2022/10/04 03:14:30;;;;;;;;;;;8.40;99.90;;;;;;5074788;28;19952;-65
2022/10/04 03:16:59;;;;;;;;;;;8.40;99.90;;;;;;5075078;28;20355;-65
2022/10/04 03:19:25;;;;;;;;;;;8.40;99.90;;;;;;5074997;28;19909;-65
2022/10/04 03:21:53;;;;;;;;;;;8.50;99.90;;;;;;5074655;28;19991;-65
2022/10/04 03:24:20;;;;;;;;;;;8.50;99.90;;;;;;5074582;28;19919;-65
2022/10/04 03:26:49;;;;;;;;;;;8.50;99.90;;;;;;5074590;28;20058;-65
2022/10/04 03:29:16;;;;;;;;;;;8.50;99.90;;;;;;5074808;28;20007;-65
2022/10/04 03:31:43;;;;;;;;;;;8.50;99.90;;;;;;5074793;28;20001;-65
2022/10/04 03:34:12;;;;;;;;;;;8.50;99.90;;;;;;5074450;28;19948;-65
2022/10/04 03:36:38;;;;;;;;;;;8.50;99.90;;;;;;5074479;28;19931;-65
2022/10/04 03:39:06;;;;;;;;;;;8.50;99.90;;;;;;5074357;28;20355;-65
2022/10/04 03:41:33;;;;;;;;;;;8.50;99.90;;;;;;5074531;28;20363;-65
2022/10/04 03:43:59;;;;;;;;;;;8.50;99.90;;;;;;5074028;28;19920;-65
2022/10/04 03:46:27;;;;;;;;;;;8.40;99.90;;;;;;5074229;28;19915;-65
2022/10/04 03:48:54;;;;;;;;;;;8.40;99.90;;;;;;5074453;28;20007;-65
2022/10/04 03:51:21;;;;;;;;;;;8.40;99.90;;;;;;5074139;28;19954;-65
2022/10/04 03:53:48;;;;;;;;;;;8.30;99.90;;;;;;5074344;28;19935;-65
2022/10/04 03:56:16;;;;;;;;;;;8.30;99.90;;;;;;5074069;28;20443;-64
2022/10/04 03:58:42;;;;;;;;;;;8.20;99.90;;;;;;5074042;28;19909;-64
2022/10/04 04:01:14;;;;;;;;;;;8.10;99.90;;;;;;5073961;28;19999;-64
2022/10/04 04:03:45;;;;;;;;;;;8.10;99.90;;;;;;5073934;28;19919;-64
2022/10/04 04:06:14;;;;;;;;;;;8.10;99.90;;;;;;5073864;28;19909;-65
2022/10/04 04:08:41;;;;;;;;;;;8.10;99.90;;;;;;5074127;28;19915;-64
2022/10/04 04:11:12;;;;;;;;;;;8.10;99.90;;;;;;5055965;28;19913;-64
2022/10/04 04:13:57;;;;;;;;;;;8.10;99.90;;;;;;5074043;28;19931;-64
2022/10/04 04:16:24;;;;;;;;;;;8.10;99.90;;;;;;5074062;28;19909;-64
2022/10/04 04:18:51;;;;;;;;;;;8.00;99.90;;;;;;5073749;28;19913;-64
2022/10/04 04:21:17;;;;;;;;;;;8.00;99.90;;;;;;5073960;28;20287;-64
2022/10/04 04:23:47;;;;;;;;;;;8.00;99.90;;;;;;5073652;28;19912;-64
2022/10/04 04:26:19;;;;;;;;;;;8.00;99.90;;;;;;5073696;28;20255;-64
2022/10/04 04:28:50;;;;;;;;;;;8.00;99.90;;;;;;5073917;28;20003;-64
2022/10/04 04:31:19;;;;;;;;;;;8.10;99.90;;;;;;5073882;28;19952;-65
2022/10/04 04:33:48;;;;;;;;;;;8.10;99.90;;;;;;5073879;28;20430;-64
2022/10/04 04:36:14;;;;;;;;;;;8.10;99.90;;;;;;5055704;28;19913;-64
2022/10/04 04:39:33;;;;;;;;;;;8.10;99.90;;;;;;5073548;28;20366;-65
2022/10/04 04:41:26;;;;;;;;;;;8.10;99.90;;;;;;5073287;28;19909;-64
2022/10/04 04:43:52;;;;;;;;;;;8.10;99.90;;;;;;5073201;28;19971;-64
2022/10/04 04:46:18;;;;;;;;;;;8.10;99.90;;;;;;5073461;28;19909;-64
2022/10/04 04:48:45;;;;;;;;;;;8.10;99.90;;;;;;5073706;28;19908;-64
2022/10/04 04:51:17;;;;;;;;;;;8.10;99.90;;;;;;5073824;28;20306;-65
2022/10/04 04:53:42;;;;;;;;;;;8.00;99.90;;;;;;5073668;28;19909;-64
2022/10/04 04:56:09;;;;;;;;;;;8.00;99.90;;;;;;5073436;28;20260;-64
2022/10/04 04:58:36;;;;;;;;;;;8.00;99.90;;;;;;5073344;28;19908;-64
2022/10/04 05:01:05;;;;;;;;;;;8.00;99.90;;;;;;5073335;28;19909;-64
2022/10/04 05:03:32;;;;;;;;;;;8.00;99.90;;;;;;5073225;28;19913;-64
2022/10/04 05:06:01;;;;;;;;;;;7.90;99.90;;;;;;5073226;28;19955;-64
2022/10/04 05:08:28;;;;;;;;;;;7.90;99.90;;;;;;5073154;28;19951;-65
2022/10/04 05:10:59;;;;;;;;;;;7.90;99.90;;;;;;5073526;28;19959;-65
2022/10/04 05:13:33;;;;;;;;;;;7.90;99.90;;;;;;5073477;28;20371;-64
2022/10/04 05:15:59;;;;;;;;;;;7.90;99.90;;;;;;5073195;28;19909;-64
2022/10/04 05:18:28;;;;;;;;;;;7.90;99.90;;;;;;5073411;28;19908;-64
2022/10/04 05:20:54;;;;;;;;;;;7.80;99.90;;;;;;5073173;28;19917;-64
2022/10/04 05:23:20;;;;;;;;;;;7.80;99.90;;;;;;5073295;28;20007;-64
2022/10/04 05:25:46;;;;;;;;;;;7.80;99.90;;;;;;5073100;28;19970;-64
2022/10/04 05:28:13;;;;;;;;;;;7.70;99.90;;;;;;5073014;28;19913;-64
2022/10/04 05:30:47;;;;;;;;;;;7.70;99.90;;;;;;5075749;28;19908;-65
2022/10/04 05:33:17;;;;;;;;;;;7.70;99.90;;;;;;5076793;28;20362;-64
2022/10/04 05:35:54;;;;;;;;;;;7.70;99.90;;;;;;5077026;28;20394;-64
2022/10/04 05:38:31;;;;;;;;;;;7.60;99.90;;;;;;5076912;28;20337;-64
2022/10/04 05:41:03;;;;;;;;;;;7.60;99.90;;;;;;5076886;28;20080;-64
2022/10/04 05:43:31;;;;;;;;;;;7.60;99.90;;;;;;5076294;28;20062;-64
2022/10/04 05:46:17;;;;;;;;;;;7.60;99.90;;;;;;5076768;28;19909;-64
2022/10/04 05:48:43;;;;;;;;;;;7.70;99.90;;;;;;5076586;28;19916;-64
2022/10/04 05:51:17;;;;;;;;;;;7.70;99.90;;;;;;5076436;28;19948;-64
2022/10/04 05:53:43;;;;;;;;;;;7.70;99.90;;;;;;5076358;28;19909;-64
2022/10/04 05:56:18;;;;;;;;;;;7.80;99.90;;;;;;5076023;28;19958;-64
2022/10/04 05:59:04;;;;;;;;;;;8.00;99.90;;;;;;5065750;28;19913;-64
2022/10/04 06:04:34;;;;;;;;;;;8.10;99.90;;;;;;5049859;28;19917;-64
2022/10/04 06:07:03;;;;;;;;;;;8.20;99.90;;;;;;5047209;28;20367;-64
2022/10/04 06:09:38;;;;;;;;;;;8.30;99.90;;;;;;5047191;28;19917;-64
2022/10/04 06:12:28;;;;;;;;;;;8.40;99.90;;;;;;5047473;28;19915;-64
2022/10/04 06:15:02;;;;;;;;;;;8.50;99.90;;;;;;5049263;28;20442;-64
2022/10/04 06:17:48;;;;;;;;;;;8.50;99.90;;;;;;5050808;28;19909;-64
2022/10/04 06:20:23;;;;;;;;;;;8.60;99.90;;;;;;5050162;28;19935;-64
2022/10/04 06:22:54;;;;;;;;;;;8.70;99.90;;;;;;5050008;28;19924;-64
2022/10/04 06:25:25;;;;;;;;;;;8.80;99.90;;;;;;5049603;28;20453;-65
2022/10/04 06:27:56;;;;;;;;;;;8.90;99.90;;;;;;5050302;28;19909;-65
2022/10/04 06:30:22;;;;;;;;;;;9.00;99.90;;;;;;5049713;28;19913;-65
2022/10/04 06:32:56;;;;;;;;;;;9.30;99.90;;;;;;5037433;28;19920;-65
2022/10/04 06:35:42;;;;;;;;;;;9.50;99.90;;;;;;5047420;28;19963;-65
2022/10/04 06:38:27;;;;;;;;;;;9.70;99.90;;;;;;5047662;28;19916;-65
2022/10/04 06:41:00;;;;;;;;;;;9.90;99.90;;;;;;5048668;28;19920;-65
2022/10/04 06:43:46;;;;;;;;;;;10.20;99.90;;;;;;5030090;28;19923;-65
2022/10/04 06:46:21;;;;;;;;;;;10.30;99.90;;;;;;5047674;28;20364;-65
2022/10/04 06:49:06;;;;;;;;;;;10.40;99.90;;;;;;5048134;28;19909;-65
2022/10/04 06:51:39;;;;;;;;;;;10.60;99.90;;;;;;5049450;28;19913;-65
2022/10/04 06:54:17;;;;;;;;;;;10.90;99.90;;;;;;5049997;28;19988;-65
2022/10/04 06:56:52;;;;;;;;;;;11.30;99.90;;;;;;5050069;28;19916;-65
2022/10/04 06:59:34;;;;;;;;;;;12.00;99.90;;;;;;5049599;28;20386;-65
2022/10/04 07:02:03;;;;;;;;;;;12.60;99.90;;;;;;5049328;28;19909;-65
2022/10/04 07:04:36;;;;;;;;;;;12.90;99.90;;;;;;5048806;28;19909;-65
2022/10/04 07:07:23;;;;;;;;;;;13.40;99.90;;;;;;5032523;28;20323;-65
2022/10/04 07:09:52;;;;;;;;;;;13.90;99.90;;;;;;5047227;28;19913;-65
2022/10/04 07:12:18;;;;;;;;;;;14.40;99.90;;;;;;5049257;28;20360;-65
2022/10/04 07:14:44;;;;;;;;;;;14.70;99.90;;;;;;5040871;28;19916;-65
2022/10/04 07:17:12;;;;;;;;;;;15.00;99.90;;;;;;5036495;28;19910;-65
2022/10/04 07:19:40;;;;;;;;;;;15.50;99.90;;;;;;5033733;28;20371;-65
2022/10/04 07:25:03;;;;;;;;;;;16.00;99.90;;;;;;5070608;28;19917;-65
2022/10/04 07:27:31;;;;;;;;;;;15.80;99.90;;;;;;5070111;28;20459;-65
2022/10/04 07:29:58;;;;;;;;;;;15.80;99.90;;;;;;5070773;28;19916;-65
2022/10/04 07:32:26;;;;;;;;;;;15.90;99.90;;;;;;5063398;28;19967;-65
2022/10/04 07:34:59;;;;;;;;;;;15.60;99.90;;;;;;5050666;28;19909;-65
2022/10/04 07:37:26;;;;;;;;;;;15.90;99.90;;;;;;5050692;28;19917;-66
2022/10/04 07:40:12;;;;;;;;;;;16.70;99.90;;;;;;5054495;28;20031;-65
2022/10/04 07:42:45;;;;;;;;;;;18.10;99.90;;;;;;5055766;28;19931;-65
2022/10/04 07:45:31;;;;;;;;;;;18.10;99.90;;;;;;5053436;28;19913;-65
2022/10/04 07:47:57;;;;;;;;;;;;;;;;;;5051955;28;20371;-66
2022/10/04 07:50:27;;;;;;;;;;;19.70;99.90;;;;;;5069273;28;20003;-65
2022/10/04 07:53:03;;;;;;;;;;;19.70;99.90;;;;;;5070065;28;19936;-66
2022/10/04 07:55:48;;;;;;;;;;;19.30;99.90;;;;;;5064511;28;19909;-65
2022/10/04 07:58:18;;;;;;;;;;;18.10;99.90;;;;;;5067992;28;19913;-65
2022/10/04 08:01:03;;;;;;;;;;;17.60;99.90;;;;;;5067073;28;19913;-65
2022/10/04 08:03:36;;;;;;;;;;;17.50;99.90;;;;;;5069212;28;19917;-65
2022/10/04 08:06:22;;;;;;;;;;;17.40;99.90;;;;;;5068119;28;20325;-65
2022/10/04 08:09:07;;;;;;;;;;;17.50;99.90;;;;;;5061861;28;20279;-65
2022/10/04 08:11:41;;;;;;;;;;;17.30;99.90;;;;;;5055880;28;19912;-65
2022/10/04 08:14:26;;;;;;;;;;;17.50;99.90;;;;;;5056701;28;19913;-65
2022/10/04 08:17:06;;;;;;;;;;;18.00;99.90;;;;;;5067307;28;19959;-65
2022/10/04 08:19:42;;;;;;;;;;;17.60;99.90;;;;;;5060560;28;19916;-65
2022/10/04 08:22:28;;;;;;;;;;;17.90;99.90;;;;;;5067877;28;20000;-65
2022/10/04 08:25:14;;;;;;;;;;;17.80;99.90;;;;;;5067267;28;20346;-65
2022/10/04 08:29:41;;;;;;;;;;;18.50;99.90;;;;;;5063533;28;19912;-65
2022/10/04 08:30:47;;;;;;;;;;;19.20;99.90;;;;;;5069138;28;19959;-65
2022/10/04 08:33:21;;;;;;;;;;;18.60;99.90;;;;;;5071674;28;20398;-65
2022/10/04 08:36:04;;;;;;;;;;;17.80;99.90;;;;;;5054372;28;19916;-65
2022/10/04 08:38:41;;;;;;;;;;;17.60;99.90;;;;;;5043354;28;19982;-65
2022/10/04 08:41:27;;;;;;;;;;;17.90;99.90;;;;;;5043868;28;19952;-65
2022/10/04 08:44:12;;;;;;;;;;;18.00;99.90;;;;;;5050272;28;19962;-65
2022/10/04 08:46:58;;;;;;;;;;;18.40;99.90;;;;;;5044683;28;19916;-65
2022/10/04 08:49:36;;;;;;;;;;;18.60;99.90;;;;;;5035240;28;20424;-65
2022/10/04 08:52:22;;;;;;;;;;;18.80;99.90;;;;;;5055609;28;19913;-65
2022/10/04 08:55:07;;;;;;;;;;;19.10;99.90;;;;;;5053831;28;19909;-65
2022/10/04 09:00:34;;;;;;;;;;;19.80;99.90;;;;;;5072611;27;19923;-65
2022/10/04 09:03:25;;;;;;;;;;;19.30;99.90;;;;;;5056054;28;19919;-66
2022/10/04 09:06:04;;;;;;;;;;;19.40;99.90;;;;;;5069442;28;19916;-65
2022/10/04 09:11:24;;;;;;;;;;;19.20;99.90;;;;;;5069034;28;19916;-65
2022/10/04 09:14:10;;;;;;;;;;;19.70;99.90;;;;;;5051981;28;19912;-65
2022/10/04 09:16:55;;;;;;;;;;;19.40;99.90;;;;;;5063315;28;19992;-66
2022/10/04 09:19:32;;;;;;;;;;;19.60;99.90;;;;;;5070171;28;19947;-65
2022/10/04 09:22:18;;;;;;;;;;;19.30;99.90;;;;;;5070519;28;19909;-65
2022/10/04 09:25:02;;;;;;;;;;;19.10;99.90;;;;;;5063286;28;19912;-65
2022/10/04 09:27:32;;;;;;;;;;;19.20;99.90;;;;;;5070644;28;20398;-65
2022/10/04 09:30:02;;;;;;;;;;;19.20;99.90;;;;;;5064202;28;19913;-65
2022/10/04 09:32:35;;;;;;;;;;;19.30;99.90;;;;;;5045762;28;19920;-65
2022/10/04 09:35:23;;;;;;;;;;;19.30;99.90;;;;;;5045489;28;19916;-65
2022/10/04 09:38:01;;;;;;;;;;;19.80;99.90;;;;;;5046078;28;19913;-66
2022/10/04 09:40:47;;;;;;;;;;;20.30;99.90;;;;;;5055408;28;19909;-66
2022/10/04 09:48:58;;;;;;;;;;;20.30;99.90;;;;;;5088782;27;19916;-65
2022/10/04 09:51:29;;;;;;;;;;;20.60;99.90;;;;;;5070780;28;20023;-65
2022/10/04 09:54:03;;;;;;;;;;;20.30;99.90;;;;;;5070037;28;19920;-64
2022/10/04 09:56:48;;;;;;;;;;;20.10;99.90;;;;;;5070244;28;19912;-65
2022/10/04 09:59:35;;;;;;;;;;;20.00;99.90;;;;;;5050248;28;19916;-64
2022/10/04 10:04:42;;;;;;;;;;;21.10;99.90;;;;;;5107336;27;1863706;-65
2022/10/04 10:07:16;;;;;;;;;;;21.00;99.90;;;;;;5153573;27;19912;-65
2022/10/04 10:15:55;;;;;;;;;;;19.40;99.90;;;;;;5156690;27;19912;-65
2022/10/04 10:18:26;;;;;;;;;;;19.60;99.90;;;;;;5130993;27;19918;-65
2022/10/04 10:21:11;;;;;;;;;;;19.70;99.90;;;;;;5146952;27;19938;-65
2022/10/04 10:23:57;;;;;;;;;;;19.90;99.90;;;;;;5147295;27;19915;-65
2022/10/04 10:26:28;;;;;;;;;;;20.30;99.90;;;;;;5135583;27;20017;-65
2022/10/04 10:29:14;;;;;;;;;;;20.90;99.90;;;;;;5160126;27;20002;-65
2022/10/04 10:31:50;;;;;;;;;;;20.90;99.90;;;;;;5151883;27;20381;-65
2022/10/04 10:34:35;;;;;;;;;;;20.70;99.90;;;;;;5128837;27;19908;-65
2022/10/04 10:37:21;;;;;;;;;;;20.60;99.90;;;;;;5163781;27;19911;-66
2022/10/04 10:42:46;;;;;;;;;;;20.30;99.90;;;;;;5069541;28;19917;-65
2022/10/04 10:45:32;;;;;;;;;;;20.50;99.90;;;;;;5040801;28;20260;-65
2022/10/04 10:48:00;;;;;;;;;;;20.50;99.90;;;;;;5050686;28;20372;-65
2022/10/04 10:51:02;;;;;;;;;;;20.40;99.90;;;;;;5050591;28;20284;-65
2022/10/04 10:53:40;;;;;;;;;;;20.70;99.90;;;;;;5050437;28;19913;-65
2022/10/04 10:56:17;;;;;;;;;;;20.30;99.90;;;;;;5050519;28;19913;-65
2022/10/04 10:59:04;;;;;;;;;;;20.60;99.90;;;;;;5050071;28;20367;-65
2022/10/04 11:01:45;;;;;;;;;;;21.10;99.90;;;;;;5048954;28;19917;-65
2022/10/04 11:04:30;;;;;;;;;;;21.20;99.90;;;;;;5049143;28;19913;-65
2022/10/04 11:07:15;;;;;;;;;;;21.00;99.90;;;;;;5048104;28;19913;-65
2022/10/04 11:10:00;;;;;;;;;;;20.50;99.90;;;;;;5052276;28;19953;-65
2022/10/04 11:12:46;;;;;;;;;;;20.80;99.90;;;;;;5046149;28;20229;-65
2022/10/04 11:15:31;;;;;;;;;;;20.50;99.90;;;;;;5046286;28;19913;-65
2022/10/04 11:18:17;;;;;;;;;;;20.60;99.90;;;;;;5048751;28;20359;-65
2022/10/04 11:21:02;;;;;;;;;;;20.20;99.90;;;;;;5049363;28;20313;-65
2022/10/04 11:23:50;;;;;;;;;;;20.40;99.90;;;;;;5049586;28;19909;-65
2022/10/04 11:26:36;;;;;;;;;;;20.10;99.90;;;;;;5049779;28;19913;-65
2022/10/04 11:29:21;;;;;;;;;;;20.00;99.90;;;;;;5048385;28;19952;-64
2022/10/04 11:32:02;;;;;;;;;;;19.70;99.90;;;;;;5047612;28;19917;-64
2022/10/04 11:34:47;;;;;;;;;;;19.90;99.90;;;;;;5049699;28;19909;-65
2022/10/04 11:37:26;;;;;;;;;;;20.00;99.90;;;;;;5049583;28;19909;-65
2022/10/04 11:42:40;;;;;;;;;;;19.80;99.90;;;;;;5091015;27;19918;-65
2022/10/04 11:45:32;;;;;;;;;;;19.70;99.90;;;;;;5091241;28;20390;-65
2022/10/04 11:48:14;;;;;;;;;;;19.60;99.90;;;;;;5089173;28;19966;-64
2022/10/04 11:50:48;;;;;;;;;;;19.70;99.90;;;;;;5109675;28;19917;-65
2022/10/04 11:53:33;;;;;;;;;;;19.50;99.90;;;;;;5089053;28;19915;-65
2022/10/04 11:56:06;;;;;;;;;;;19.70;99.90;;;;;;5083826;28;19970;-65
2022/10/04 11:58:51;;;;;;;;;;;19.70;99.90;;;;;;5083556;28;19912;-65
2022/10/04 12:01:39;;;;;;;;;;;20.00;99.90;;;;;;5089244;28;20428;-65
2022/10/04 12:04:25;;;;;;;;;;;20.10;99.90;;;;;;5076883;28;19948;-65
2022/10/04 12:07:04;;;;;;;;;;;20.20;99.90;;;;;;5084218;28;20256;-66
2022/10/04 12:09:48;;;;;;;;;;;19.90;99.90;;;;;;5089919;28;19912;-66
2022/10/04 12:12:48;;;;;;;;;;;19.90;99.90;;;;;;5088599;28;20367;-65
2022/10/04 12:15:21;;;;;;;;;;;19.90;99.90;;;;;;5081057;28;19944;-65
2022/10/04 12:18:06;;;;;;;;;;;20.10;99.90;;;;;;5084395;28;19920;-65
2022/10/04 12:20:40;;;;;;;;;;;19.90;99.90;;;;;;5087387;28;19946;-65
2022/10/04 12:23:28;;;;;;;;;;;19.70;99.90;;;;;;5078759;28;19924;-65
2022/10/04 12:26:12;;;;;;;;;;;19.60;99.90;;;;;;5078071;28;20301;-65
2022/10/04 12:28:47;;;;;;;;;;;19.70;99.90;;;;;;5086384;28;20390;-65
2022/10/04 12:31:22;;;;;;;;;;;19.80;99.90;;;;;;5078793;28;20441;-65
2022/10/04 12:33:59;;;;;;;;;;;19.90;99.90;;;;;;5077576;28;20375;-66
2022/10/04 12:36:35;;;;;;;;;;;19.90;99.90;;;;;;5069432;28;19964;-65
2022/10/04 12:41:58;;;;;;;;;;;20.20;99.90;;;;;;5070582;28;19923;-66
2022/10/04 12:44:39;;;;;;;;;;;20.10;99.90;;;;;;5062627;28;20410;-65
2022/10/04 12:47:25;;;;;;;;;;;19.80;99.90;;;;;;5050487;28;19963;-65
2022/10/04 12:50:10;;;;;;;;;;;19.90;99.90;;;;;;5049967;28;19975;-65
2022/10/04 12:52:44;;;;;;;;;;;19.90;99.90;;;;;;5050410;28;20320;-65
2022/10/04 12:55:29;;;;;;;;;;;19.90;99.90;;;;;;5064209;28;20442;-65
2022/10/04 12:57:57;;;;;;;;;;;20.10;99.90;;;;;;5033802;28;20382;-65
2022/10/04 13:00:24;;;;;;;;;;;20.20;99.90;;;;;;5030946;28;19936;-64
2022/10/04 13:05:35;;;;;;;;;;;20.30;99.90;;;;;;5053590;28;19921;-65
2022/10/04 13:08:05;;;;;;;;;;;20.10;99.90;;;;;;5057038;28;19948;-66
2022/10/04 13:10:43;;;;;;;;;;;20.00;99.90;;;;;;5041646;28;19923;-65
2022/10/04 13:13:24;;;;;;;;;;;20.10;99.90;;;;;;5050463;28;20371;-65
2022/10/04 13:15:57;;;;;;;;;;;20.20;99.90;;;;;;5041811;28;19917;-65
2022/10/04 13:18:43;;;;;;;;;;;20.30;99.90;;;;;;5057167;28;19913;-65
2022/10/04 13:21:10;;;;;;;;;;;20.20;99.90;;;;;;5039472;28;19913;-65
2022/10/04 13:23:56;;;;;;;;;;;20.10;99.90;;;;;;5064496;28;20301;-65
2022/10/04 13:26:28;;;;;;;;;;;20.20;99.90;;;;;;5070454;28;19909;-65
2022/10/04 13:29:02;;;;;;;;;;;20.10;99.90;;;;;;5053031;28;19913;-64
2022/10/04 13:34:28;;;;;;;;;;;20.10;99.90;;;;;;5087912;27;19920;-65
2022/10/04 13:37:00;;;;;;;;;;;19.90;99.70;;;;;;5090997;28;19956;-65
2022/10/04 13:39:29;;;;;;;;;;;19.90;99.90;;;;;;5070395;28;19926;-65
2022/10/04 13:44:45;;;;;;;;;;;20.10;99.80;;;;;;5143363;27;20327;-65
2022/10/04 13:50:10;;;;;;;;;;;20.40;99.90;;;;;;5081799;27;19917;-64
2022/10/04 13:58:31;;;;;;;;;;;20.30;99.90;;;;;;5069481;28;19975;-65
2022/10/04 14:01:16;;;;;;;;;;;20.40;99.90;;;;;;5073420;28;19915;-66
2022/10/04 14:04:01;;;;;;;;;;;20.30;99.90;;;;;;5075981;28;20260;-65
2022/10/04 14:06:47;;;;;;;;;;;20.30;99.80;;;;;;5068441;28;20427;-65
2022/10/04 14:09:20;;;;;;;;;;;20.20;99.10;;;;;;5064398;28;20371;-65
2022/10/04 14:11:55;;;;;;;;;;;20.30;98.10;;;;;;5069429;28;20313;-65
2022/10/04 14:14:42;;;;;;;;;;;20.30;99.80;;;;;;5069634;28;19916;-64
2022/10/04 14:17:14;;;;;;;;;;;20.30;97.30;;;;;;5067786;28;19917;-65
2022/10/04 14:19:46;;;;;;;;;;;20.20;97.80;;;;;;5070188;28;20321;-65
2022/10/04 14:22:23;;;;;;;;;;;20.30;98.30;;;;;;5070134;28;19908;-65
2022/10/04 14:24:59;;;;;;;;;;;20.40;96.90;;;;;;5069981;28;20406;-66
2022/10/04 14:27:37;;;;;;;;;;;20.20;97.70;;;;;;5069663;28;19920;-66
2022/10/04 14:30:08;;;;;;;;;;;20.20;98.30;;;;;;5069072;28;20315;-65
2022/10/04 14:32:50;;;;;;;;;;;20.30;98.80;;;;;;5101258;28;19909;-65
2022/10/04 14:35:20;;;;;;;;;;;20.20;99.40;;;;;;5067075;28;20371;-65
2022/10/04 14:37:52;;;;;;;;;;;20.10;99.00;;;;;;5068431;28;19909;-65
2022/10/04 14:40:30;;;;;;;;;;;20.10;99.30;;;;;;5068386;28;20279;-65
2022/10/04 14:43:16;;;;;;;;;;;20.10;99.00;;;;;;5068343;28;20282;-65
2022/10/04 14:46:01;;;;;;;;;;;20.10;99.70;;;;;;5069638;28;19913;-65
2022/10/04 14:48:47;;;;;;;;;;;20.20;99.90;;;;;;5078814;28;19921;-65
2022/10/04 14:51:15;;;;;;;;;;;20.20;99.80;;;;;;5089859;28;19962;-66
2022/10/04 14:53:50;;;;;;;;;;;20.20;99.50;;;;;;5089904;28;19913;-65
2022/10/04 14:56:22;;;;;;;;;;;20.30;99.20;;;;;;5090157;28;19915;-65
2022/10/04 14:59:08;;;;;;;;;;;20.40;99.40;;;;;;5090121;28;20007;-65
2022/10/04 15:01:37;;;;;;;;;;;20.40;99.40;;;;;;5076062;28;19908;-65
2022/10/04 15:04:18;;;;;;;;;;;20.50;98.60;;;;;;5076132;28;19995;-65
2022/10/04 15:06:56;;;;;;;;;;;20.50;98.10;;;;;;5058329;28;19909;-65
2022/10/04 15:09:41;;;;;;;;;;;20.70;98.40;;;;;;5076298;28;20015;-65
2022/10/04 15:12:27;;;;;;;;;;;20.70;97.50;;;;;;5076032;28;19915;-65
2022/10/04 15:15:13;;;;;;;;;;;20.60;97.30;;;;;;5075925;28;19909;-65
2022/10/04 15:17:41;;;;;;;;;;;20.40;97.30;;;;;;5075865;28;20294;-65
2022/10/04 15:20:18;;;;;;;;;;;20.30;97.70;;;;;;5076079;28;19931;-65
2022/10/04 15:22:48;;;;;;;;;;;20.20;97.90;;;;;;5076149;28;19916;-65
2022/10/04 15:25:33;;;;;;;;;;;20.10;98.00;;;;;;5074707;28;19916;-65
2022/10/04 15:28:03;;;;;;;;;;;19.90;98.50;;;;;;5075699;28;20007;-65
2022/10/04 15:33:22;;;;;;;;;;;19.70;99.10;;;;;;5091243;27;19912;-66
2022/10/04 15:36:03;;;;;;;;;;;19.70;99.40;;;;;;5091169;28;19913;-66
2022/10/04 15:38:37;;;;;;;;;;;19.70;99.90;;;;;;5091128;28;19909;-66
2022/10/04 15:41:05;;;;;;;;;;;19.70;99.30;;;;;;5091011;28;19915;-66
2022/10/04 15:43:52;;;;;;;;;;;19.50;99.00;;;;;;5090993;28;19908;-65
2022/10/04 15:46:33;;;;;;;;;;;19.50;98.80;;;;;;5090900;28;20374;-65
2022/10/04 15:49:07;;;;;;;;;;;19.40;99.60;;;;;;5091192;28;19991;-65
2022/10/04 15:51:52;;;;;;;;;;;19.30;98.90;;;;;;5090816;28;19912;-65
2022/10/04 15:54:38;;;;;;;;;;;19.30;99.50;;;;;;5090789;28;19946;-65
2022/10/04 15:57:19;;;;;;;;;;;19.20;99.20;;;;;;5090817;28;19914;-65
2022/10/04 15:59:52;;;;;;;;;;;19.10;99.40;;;;;;5090920;28;19908;-65
2022/10/04 16:02:37;;;;;;;;;;;19.00;99.90;;;;;;5090919;28;19916;-65
2022/10/04 16:05:21;;;;;;;;;;;19.00;99.70;;;;;;5090516;28;19912;-65
2022/10/04 16:07:58;;;;;;;;;;;18.90;99.90;;;;;;5090380;28;19908;-65
2022/10/04 16:10:27;;;;;;;;;;;18.70;99.90;;;;;;5090699;28;20003;-65